Airfield :
LOGIN :

Register | Disclaimer

   EN    FR    IT 

 










Legend :    VFR   Marginal VFR   IFR   Intensive IFR   Very Intensive IFR
Visi :
Ceiling :
>= 8 km
>= 3000ft
5 to 8 km
1000 to 3000 ft
1500m to 5 km
500 to 1000 ft
800 to 1500m
200 to 500 ft
< 800m
< 200 ft
Symbols :   Thunderstorms  Fog  Heavy snow  Heavy precipitations  Wind > 20 kt
SIGMETs :     Misc.  Thunderstorms  Icing  Turbulence  Mountain Waves  Volcanic Ashes







- Airport Elevation : 257 ft
- IATA code : MAN
- Download approach charts


EGCC - Manchester

CURRENT METAR :
  • 291250Z AUTO 09005KT 050V150 9999 OVC014 16/13 Q1012 TEMPO BKN016

EXPIRED METARs :
  • 291220Z AUTO 10004KT 030V150 9999 BKN016 OVC020 15/13 Q1012
  • 291150Z AUTO 10005KT 050V220 9999 OVC014 15/12 Q1012 TEMPO BKN016
  • 291120Z AUTO 09005KT 050V140 9999 FEW015 BKN021 OVC026 15/12 Q1012 NOSIG
  • 291050Z AUTO 09004KT 010V130 9999 SCT014 OVC025 15/12 Q1013 NOSIG
  • 291020Z AUTO 10004KT 040V160 9999 OVC013 15/12 Q1013 TEMPO BKN015

TAF TAF EGCC
Valid from the 29 at 12:00 until the 30 at 18:00 UTC


291056Z 2912/3018 10005KT 9999 SCT020
TEMPO 2912/2915 7000 -RA BKN010
TEMPO 2915/2922 7000 SHRA BKN012
PROB30
TEMPO 2915/2922 4000 +SHRA BKN009
PROB30
TEMPO 2922/3004 5000 -RA BR BKN008
BECMG 3006/3009 24010KT
BECMG 3012/3015 30010KT
ATIS : +44 161 499 2324
No reported NOTAMs for that airfield.



MET'MAP, your aeronautical weather chart ! - Copyright ORBIFLY December 2007 - Disclaimer

ORBIFLY MET'MAP TEAM :

Programming & Development : Alexandra Zaïnal
Concept & Development : Baudouin d'Aumeries
Co-Development & Prog : Marc-Olivier Méhu
Technical & hardware support : Manuel Goepfert

Contact : metmap@orbifly.com




SOURCES & CREDITS :

   NOAA